Dallas, Texas
Traffic Map
Current Weather Conditions
Dallas, Texas
Broken Clouds
Broken Clouds
65°
Feels Like: 65°
Wind Chill: 65° Ceiling: 25000
Heat Index: 65° Visibility: 10mi
Dew Point: 62° Wind: 10mph
Humidity: 90% Direction: 70° (ENE)
Pressure: 29.85in Gusts: 0mph
Raw Report DataKDAL 231053Z 07009KT 10SM FEW055 SCT065 BKN250 18/17 A2985 RMK AO2 SLP101 CB DSNT SE T01830167
Traffic Incident Summary
Active as of:
Severity:
Category:
InformationThere was an issue retrieving the traffic information for this location. Please try a different location or try again shortly.
Advertisements
Track Severe Weather on mobile